Città:
 IT 
 EN 
 FR 
 DE 
 ES 

Dati meteo attuali Milano

Datameteo.com - Informazione e servizi avanzati per la meteorologia,la nautica e la protezione civile
Milano / Linate, Italy
Alba: 7:53 AM UTC1
Tramonto: 5:14 PM UTC1
 Lat: 45.42N, Lon: 9.27E
ICAO Used: LIML
Condizioni Meteo Attuali Aggiornate: 23.01.2022 alle 08:20 UTC
Sereno
Sereno
Sereno
Temp: 2°C
Umidita': 80%
Direz/Vel. Vento: E 5 / KT raffiche
Pressione: 1030 hPa
Punto di rugiada: -1°C
Temperatura percepita: 2°C
Visibilitą: 8000 m. (buona)
Temperatura percepita in
presenza di vento (Wind Chill)
:
-1°C
T. max (ultime 24 ore): 2°C
T. min (ultime 24 ore): -1°C


METAR ORIGINALE
LIML 230820Z 08005KT 8000 NSC 02/M01 Q1030 NOSIG



[ Indietro ]


Elaborazione dati by Datameteo.com - Lrc srl Copyright ©, All rights reserved.
Visualizza la versione web
©2010 Datameteo.com
weather mobile,mobile weather,meteo mobile,mobile meteo,meteo sul telefonino datameteo.com